sensor_id;sensor_type;location;lat;lon;timestamp;P1;durP1;ratioP1;P2;durP2;ratioP2
67120;SDS011;54042;47.420;18.888;2022-07-06T00:00:52;6.25;;;4.15;;
67120;SDS011;54042;47.420;18.888;2022-07-06T00:03:18;7.45;;;4.30;;
67120;SDS011;54042;47.420;18.888;2022-07-06T00:05:45;4.88;;;4.30;;
67120;SDS011;54042;47.420;18.888;2022-07-06T00:08:12;7.03;;;4.32;;
67120;SDS011;54042;47.420;18.888;2022-07-06T00:10:39;5.68;;;4.47;;
67120;SDS011;54042;47.420;18.888;2022-07-06T00:13:06;4.97;;;4.50;;
67120;SDS011;54042;47.420;18.888;2022-07-06T00:15:32;6.50;;;4.25;;
67120;SDS011;54042;47.420;18.888;2022-07-06T00:17:59;9.60;;;4.45;;
67120;SDS011;54042;47.420;18.888;2022-07-06T00:20:26;5.45;;;4.78;;
67120;SDS011;54042;47.420;18.888;2022-07-06T00:22:53;7.13;;;4.45;;
67120;SDS011;54042;47.420;18.888;2022-07-06T00:25:20;5.10;;;4.60;;
67120;SDS011;54042;47.420;18.888;2022-07-06T00:27:47;5.13;;;4.63;;
67120;SDS011;54042;47.420;18.888;2022-07-06T00:30:13;7.47;;;4.68;;
67120;SDS011;54042;47.420;18.888;2022-07-06T00:32:40;6.70;;;5.07;;
67120;SDS011;54042;47.420;18.888;2022-07-06T00:35:07;10.32;;;4.50;;
67120;SDS011;54042;47.420;18.888;2022-07-06T00:37:34;5.32;;;4.90;;
67120;SDS011;54042;47.420;18.888;2022-07-06T00:40:01;4.90;;;4.50;;
67120;SDS011;54042;47.420;18.888;2022-07-06T00:42:28;14.93;;;4.93;;
67120;SDS011;54042;47.420;18.888;2022-07-06T00:44:54;5.90;;;4.30;;
67120;SDS011;54042;47.420;18.888;2022-07-06T00:47:22;6.32;;;4.80;;
67120;SDS011;54042;47.420;18.888;2022-07-06T00:49:49;4.80;;;4.30;;
67120;SDS011;54042;47.420;18.888;2022-07-06T00:52:36;6.00;;;4.80;;
67120;SDS011;54042;47.420;18.888;2022-07-06T00:55:03;7.25;;;5.30;;
67120;SDS011;54042;47.420;18.888;2022-07-06T00:57:30;6.07;;;4.88;;
67120;SDS011;54042;47.420;18.888;2022-07-06T00:59:57;6.60;;;5.03;;
67120;SDS011;54042;47.420;18.888;2022-07-06T01:02:24;7.88;;;5.03;;
67120;SDS011;54042;47.420;18.888;2022-07-06T01:04:51;5.63;;;4.90;;
67120;SDS011;54042;47.420;18.888;2022-07-06T01:07:18;5.53;;;4.80;;
67120;SDS011;54042;47.420;18.888;2022-07-06T01:09:45;6.32;;;5.20;;
67120;SDS011;54042;47.420;18.888;2022-07-06T01:12:12;6.22;;;5.00;;
67120;SDS011;54042;47.420;18.888;2022-07-06T01:14:39;6.78;;;5.03;;
67120;SDS011;54042;47.420;18.888;2022-07-06T01:17:07;6.93;;;4.82;;
67120;SDS011;54042;47.420;18.888;2022-07-06T01:19:34;6.57;;;5.57;;
67120;SDS011;54042;47.420;18.888;2022-07-06T01:22:01;5.18;;;4.65;;
67120;SDS011;54042;47.420;18.888;2022-07-06T01:24:28;7.70;;;4.85;;
67120;SDS011;54042;47.420;18.888;2022-07-06T01:26:55;10.85;;;4.60;;
67120;SDS011;54042;47.420;18.888;2022-07-06T01:29:22;10.35;;;4.75;;
67120;SDS011;54042;47.420;18.888;2022-07-06T01:31:49;6.57;;;4.70;;
67120;SDS011;54042;47.420;18.888;2022-07-06T01:34:17;5.57;;;4.82;;
67120;SDS011;54042;47.420;18.888;2022-07-06T01:36:44;8.27;;;5.70;;
67120;SDS011;54042;47.420;18.888;2022-07-06T01:39:12;7.93;;;4.93;;
67120;SDS011;54042;47.420;18.888;2022-07-06T01:41:39;5.60;;;4.75;;
67120;SDS011;54042;47.420;18.888;2022-07-06T01:44:06;5.97;;;5.38;;
67120;SDS011;54042;47.420;18.888;2022-07-06T01:46:33;7.32;;;5.38;;
67120;SDS011;54042;47.420;18.888;2022-07-06T01:49:00;11.13;;;5.22;;
67120;SDS011;54042;47.420;18.888;2022-07-06T01:51:27;8.13;;;5.43;;
67120;SDS011;54042;47.420;18.888;2022-07-06T01:53:54;8.10;;;5.97;;
67120;SDS011;54042;47.420;18.888;2022-07-06T01:56:21;10.88;;;5.90;;
67120;SDS011;54042;47.420;18.888;2022-07-06T01:58:48;6.43;;;5.82;;
67120;SDS011;54042;47.420;18.888;2022-07-06T02:01:16;6.28;;;5.68;;
67120;SDS011;54042;47.420;18.888;2022-07-06T02:03:45;7.68;;;5.60;;
67120;SDS011;54042;47.420;18.888;2022-07-06T02:06:15;6.93;;;5.80;;
67120;SDS011;54042;47.420;18.888;2022-07-06T02:08:42;7.75;;;5.85;;
67120;SDS011;54042;47.420;18.888;2022-07-06T02:11:09;8.90;;;6.03;;
67120;SDS011;54042;47.420;18.888;2022-07-06T02:13:36;9.98;;;6.10;;
67120;SDS011;54042;47.420;18.888;2022-07-06T02:16:03;7.63;;;6.35;;
67120;SDS011;54042;47.420;18.888;2022-07-06T02:18:31;7.03;;;6.25;;
67120;SDS011;54042;47.420;18.888;2022-07-06T02:20:58;8.13;;;6.60;;
67120;SDS011;54042;47.420;18.888;2022-07-06T02:23:24;9.50;;;6.50;;
67120;SDS011;54042;47.420;18.888;2022-07-06T02:25:52;7.93;;;7.03;;
67120;SDS011;54042;47.420;18.888;2022-07-06T02:28:21;10.88;;;6.60;;
67120;SDS011;54042;47.420;18.888;2022-07-06T02:30:49;8.02;;;6.97;;
67120;SDS011;54042;47.420;18.888;2022-07-06T02:33:16;10.57;;;7.63;;
67120;SDS011;54042;47.420;18.888;2022-07-06T02:35:43;9.10;;;8.13;;
67120;SDS011;54042;47.420;18.888;2022-07-06T02:38:10;8.45;;;6.88;;
67120;SDS011;54042;47.420;18.888;2022-07-06T02:40:37;11.48;;;7.68;;
67120;SDS011;54042;47.420;18.888;2022-07-06T02:43:04;10.73;;;7.50;;
67120;SDS011;54042;47.420;18.888;2022-07-06T02:45:31;9.90;;;7.47;;
67120;SDS011;54042;47.420;18.888;2022-07-06T02:47:59;9.23;;;7.20;;
67120;SDS011;54042;47.420;18.888;2022-07-06T02:50:25;9.95;;;6.75;;
67120;SDS011;54042;47.420;18.888;2022-07-06T02:52:52;13.13;;;7.45;;
67120;SDS011;54042;47.420;18.888;2022-07-06T02:55:20;8.15;;;7.05;;
67120;SDS011;54042;47.420;18.888;2022-07-06T02:57:47;8.38;;;7.25;;
67120;SDS011;54042;47.420;18.888;2022-07-06T03:00:13;11.05;;;7.47;;
67120;SDS011;54042;47.420;18.888;2022-07-06T03:02:40;9.02;;;7.07;;
67120;SDS011;54042;47.420;18.888;2022-07-06T03:05:07;13.10;;;7.10;;
67120;SDS011;54042;47.420;18.888;2022-07-06T03:07:34;10.82;;;7.57;;
67120;SDS011;54042;47.420;18.888;2022-07-06T03:10:01;10.50;;;8.10;;
67120;SDS011;54042;47.420;18.888;2022-07-06T03:12:28;11.52;;;8.25;;
67120;SDS011;54042;47.420;18.888;2022-07-06T03:14:55;10.73;;;7.85;;
67120;SDS011;54042;47.420;18.888;2022-07-06T03:17:22;9.25;;;7.82;;
67120;SDS011;54042;47.420;18.888;2022-07-06T03:19:49;8.88;;;7.70;;
67120;SDS011;54042;47.420;18.888;2022-07-06T03:22:15;9.10;;;7.30;;
67120;SDS011;54042;47.420;18.888;2022-07-06T03:24:42;15.35;;;8.30;;
67120;SDS011;54042;47.420;18.888;2022-07-06T03:27:09;9.10;;;7.78;;
67120;SDS011;54042;47.420;18.888;2022-07-06T03:29:36;15.25;;;9.30;;
67120;SDS011;54042;47.420;18.888;2022-07-06T03:32:02;12.07;;;7.82;;
67120;SDS011;54042;47.420;18.888;2022-07-06T03:34:29;9.20;;;8.05;;
67120;SDS011;54042;47.420;18.888;2022-07-06T03:36:56;13.95;;;7.40;;
67120;SDS011;54042;47.420;18.888;2022-07-06T03:39:23;11.07;;;8.07;;
67120;SDS011;54042;47.420;18.888;2022-07-06T03:41:50;12.40;;;7.63;;
67120;SDS011;54042;47.420;18.888;2022-07-06T03:44:17;10.15;;;7.90;;
67120;SDS011;54042;47.420;18.888;2022-07-06T03:46:44;11.38;;;7.45;;
67120;SDS011;54042;47.420;18.888;2022-07-06T03:49:10;13.65;;;8.35;;
67120;SDS011;54042;47.420;18.888;2022-07-06T03:51:37;13.80;;;7.40;;
67120;SDS011;54042;47.420;18.888;2022-07-06T03:54:04;10.80;;;7.20;;
67120;SDS011;54042;47.420;18.888;2022-07-06T03:56:30;11.13;;;7.95;;
67120;SDS011;54042;47.420;18.888;2022-07-06T03:59:00;10.77;;;7.82;;
67120;SDS011;54042;47.420;18.888;2022-07-06T04:01:28;12.73;;;8.27;;
67120;SDS011;54042;47.420;18.888;2022-07-06T04:03:56;11.77;;;7.30;;
67120;SDS011;54042;47.420;18.888;2022-07-06T04:06:23;11.50;;;7.25;;
67120;SDS011;54042;47.420;18.888;2022-07-06T04:08:52;11.82;;;7.97;;
67120;SDS011;54042;47.420;18.888;2022-07-06T04:11:19;11.43;;;7.95;;
67120;SDS011;54042;47.420;18.888;2022-07-06T04:13:48;13.40;;;7.55;;
67120;SDS011;54042;47.420;18.888;2022-07-06T04:16:15;11.95;;;7.65;;
67120;SDS011;54042;47.420;18.888;2022-07-06T04:18:42;10.82;;;7.78;;
67120;SDS011;54042;47.420;18.888;2022-07-06T04:21:11;10.35;;;7.35;;
67120;SDS011;54042;47.420;18.888;2022-07-06T04:23:37;8.50;;;7.55;;
67120;SDS011;54042;47.420;18.888;2022-07-06T04:26:04;11.15;;;7.80;;
67120;SDS011;54042;47.420;18.888;2022-07-06T04:28:31;9.82;;;7.20;;
67120;SDS011;54042;47.420;18.888;2022-07-06T04:30:58;11.20;;;7.35;;
67120;SDS011;54042;47.420;18.888;2022-07-06T04:33:25;10.13;;;7.13;;
67120;SDS011;54042;47.420;18.888;2022-07-06T04:35:51;9.55;;;7.72;;
67120;SDS011;54042;47.420;18.888;2022-07-06T04:38:18;8.57;;;6.88;;
67120;SDS011;54042;47.420;18.888;2022-07-06T04:40:46;11.18;;;7.20;;
67120;SDS011;54042;47.420;18.888;2022-07-06T04:43:13;12.15;;;7.55;;
67120;SDS011;54042;47.420;18.888;2022-07-06T04:45:40;9.90;;;7.15;;
67120;SDS011;54042;47.420;18.888;2022-07-06T04:48:07;9.63;;;7.28;;
67120;SDS011;54042;47.420;18.888;2022-07-06T04:50:34;11.10;;;6.82;;
67120;SDS011;54042;47.420;18.888;2022-07-06T04:53:05;13.32;;;6.40;;
67120;SDS011;54042;47.420;18.888;2022-07-06T04:55:32;11.07;;;7.75;;
67120;SDS011;54042;47.420;18.888;2022-07-06T04:57:59;9.82;;;7.13;;
67120;SDS011;54042;47.420;18.888;2022-07-06T05:00:26;10.75;;;7.35;;
67120;SDS011;54042;47.420;18.888;2022-07-06T05:02:53;7.22;;;6.25;;
67120;SDS011;54042;47.420;18.888;2022-07-06T05:05:19;11.13;;;6.75;;
67120;SDS011;54042;47.420;18.888;2022-07-06T05:07:46;9.73;;;6.95;;
67120;SDS011;54042;47.420;18.888;2022-07-06T05:10:13;12.93;;;6.80;;
67120;SDS011;54042;47.420;18.888;2022-07-06T05:12:40;13.80;;;6.70;;
67120;SDS011;54042;47.420;18.888;2022-07-06T05:15:07;9.68;;;7.07;;
67120;SDS011;54042;47.420;18.888;2022-07-06T05:17:34;7.60;;;6.68;;
67120;SDS011;54042;47.420;18.888;2022-07-06T05:20:01;8.00;;;6.30;;
67120;SDS011;54042;47.420;18.888;2022-07-06T05:22:28;7.68;;;6.60;;
67120;SDS011;54042;47.420;18.888;2022-07-06T05:24:55;10.35;;;6.45;;
67120;SDS011;54042;47.420;18.888;2022-07-06T05:27:22;15.15;;;6.53;;
67120;SDS011;54042;47.420;18.888;2022-07-06T05:29:48;9.50;;;6.22;;
67120;SDS011;54042;47.420;18.888;2022-07-06T05:32:15;10.23;;;6.78;;
67120;SDS011;54042;47.420;18.888;2022-07-06T05:34:42;10.35;;;6.93;;
67120;SDS011;54042;47.420;18.888;2022-07-06T05:37:09;8.40;;;6.95;;
67120;SDS011;54042;47.420;18.888;2022-07-06T05:39:36;8.20;;;6.53;;
67120;SDS011;54042;47.420;18.888;2022-07-06T05:42:10;11.23;;;7.35;;
67120;SDS011;54042;47.420;18.888;2022-07-06T05:44:38;12.77;;;7.25;;
67120;SDS011;54042;47.420;18.888;2022-07-06T05:47:06;8.77;;;6.93;;
67120;SDS011;54042;47.420;18.888;2022-07-06T05:49:51;11.80;;;6.85;;
67120;SDS011;54042;47.420;18.888;2022-07-06T05:52:36;14.13;;;6.82;;
67120;SDS011;54042;47.420;18.888;2022-07-06T05:55:03;10.57;;;6.72;;
67120;SDS011;54042;47.420;18.888;2022-07-06T05:57:33;12.77;;;6.95;;
67120;SDS011;54042;47.420;18.888;2022-07-06T05:59:59;8.82;;;6.82;;
67120;SDS011;54042;47.420;18.888;2022-07-06T06:02:26;8.43;;;6.22;;
67120;SDS011;54042;47.420;18.888;2022-07-06T06:05:03;11.93;;;7.32;;
67120;SDS011;54042;47.420;18.888;2022-07-06T06:07:32;9.90;;;6.72;;
67120;SDS011;54042;47.420;18.888;2022-07-06T06:09:59;16.70;;;6.85;;
67120;SDS011;54042;47.420;18.888;2022-07-06T06:12:26;8.68;;;6.45;;
67120;SDS011;54042;47.420;18.888;2022-07-06T06:14:53;11.18;;;6.90;;
67120;SDS011;54042;47.420;18.888;2022-07-06T06:17:20;9.57;;;6.68;;
67120;SDS011;54042;47.420;18.888;2022-07-06T06:19:48;11.85;;;7.15;;
67120;SDS011;54042;47.420;18.888;2022-07-06T06:22:14;7.32;;;6.40;;
67120;SDS011;54042;47.420;18.888;2022-07-06T06:24:42;8.77;;;5.75;;
67120;SDS011;54042;47.420;18.888;2022-07-06T06:27:12;10.85;;;6.47;;
67120;SDS011;54042;47.420;18.888;2022-07-06T06:29:42;6.90;;;5.28;;
67120;SDS011;54042;47.420;18.888;2022-07-06T06:32:10;11.60;;;5.75;;
67120;SDS011;54042;47.420;18.888;2022-07-06T06:34:41;8.20;;;6.03;;
67120;SDS011;54042;47.420;18.888;2022-07-06T06:37:09;7.05;;;5.55;;
67120;SDS011;54042;47.420;18.888;2022-07-06T06:39:35;13.95;;;6.95;;
67120;SDS011;54042;47.420;18.888;2022-07-06T06:42:02;9.35;;;5.97;;
67120;SDS011;54042;47.420;18.888;2022-07-06T06:44:32;8.73;;;6.00;;
67120;SDS011;54042;47.420;18.888;2022-07-06T06:46:58;10.02;;;6.13;;
67120;SDS011;54042;47.420;18.888;2022-07-06T06:49:30;7.40;;;5.80;;
67120;SDS011;54042;47.420;18.888;2022-07-06T06:51:57;10.30;;;5.68;;
67120;SDS011;54042;47.420;18.888;2022-07-06T06:54:44;7.72;;;5.57;;
67120;SDS011;54042;47.420;18.888;2022-07-06T06:57:10;10.27;;;5.22;;
67120;SDS011;54042;47.420;18.888;2022-07-06T06:59:37;8.55;;;5.32;;
67120;SDS011;54042;47.420;18.888;2022-07-06T07:02:04;5.50;;;4.80;;
67120;SDS011;54042;47.420;18.888;2022-07-06T07:04:33;11.27;;;5.68;;
67120;SDS011;54042;47.420;18.888;2022-07-06T07:07:00;8.68;;;5.13;;
67120;SDS011;54042;47.420;18.888;2022-07-06T07:09:29;8.75;;;5.72;;
67120;SDS011;54042;47.420;18.888;2022-07-06T07:11:59;7.20;;;4.35;;
67120;SDS011;54042;47.420;18.888;2022-07-06T07:14:26;9.52;;;4.60;;
67120;SDS011;54042;47.420;18.888;2022-07-06T07:16:54;7.88;;;4.47;;
67120;SDS011;54042;47.420;18.888;2022-07-06T07:19:20;9.13;;;4.65;;
67120;SDS011;54042;47.420;18.888;2022-07-06T07:21:50;7.68;;;5.25;;
67120;SDS011;54042;47.420;18.888;2022-07-06T07:24:16;9.63;;;4.93;;
67120;SDS011;54042;47.420;18.888;2022-07-06T07:26:43;4.82;;;3.90;;
67120;SDS011;54042;47.420;18.888;2022-07-06T07:29:21;6.20;;;4.50;;
67120;SDS011;54042;47.420;18.888;2022-07-06T07:31:48;8.65;;;4.35;;
67120;SDS011;54042;47.420;18.888;2022-07-06T07:34:15;6.32;;;4.25;;
67120;SDS011;54042;47.420;18.888;2022-07-06T07:36:42;6.40;;;4.18;;
67120;SDS011;54042;47.420;18.888;2022-07-06T07:39:09;5.95;;;4.50;;
67120;SDS011;54042;47.420;18.888;2022-07-06T07:41:36;10.18;;;4.50;;
67120;SDS011;54042;47.420;18.888;2022-07-06T07:44:03;7.07;;;4.10;;
67120;SDS011;54042;47.420;18.888;2022-07-06T07:46:30;6.75;;;4.30;;
67120;SDS011;54042;47.420;18.888;2022-07-06T07:48:57;6.32;;;4.22;;
67120;SDS011;54042;47.420;18.888;2022-07-06T07:51:23;5.60;;;4.10;;
67120;SDS011;54042;47.420;18.888;2022-07-06T07:53:52;8.32;;;4.38;;
67120;SDS011;54042;47.420;18.888;2022-07-06T07:56:18;6.55;;;4.57;;
67120;SDS011;54042;47.420;18.888;2022-07-06T07:58:45;6.45;;;4.30;;
67120;SDS011;54042;47.420;18.888;2022-07-06T08:01:12;4.40;;;4.00;;
67120;SDS011;54042;47.420;18.888;2022-07-06T08:03:39;5.28;;;3.67;;
67120;SDS011;54042;47.420;18.888;2022-07-06T08:06:06;5.93;;;3.70;;
67120;SDS011;54042;47.420;18.888;2022-07-06T08:08:32;4.32;;;3.92;;
67120;SDS011;54042;47.420;18.888;2022-07-06T08:10:59;6.50;;;3.85;;
67120;SDS011;54042;47.420;18.888;2022-07-06T08:13:44;5.18;;;3.42;;
67120;SDS011;54042;47.420;18.888;2022-07-06T08:16:11;7.05;;;4.05;;
67120;SDS011;54042;47.420;18.888;2022-07-06T08:18:38;7.68;;;4.38;;
67120;SDS011;54042;47.420;18.888;2022-07-06T08:21:05;5.57;;;4.00;;
67120;SDS011;54042;47.420;18.888;2022-07-06T08:23:53;7.05;;;3.47;;
67120;SDS011;54042;47.420;18.888;2022-07-06T08:26:21;5.80;;;3.55;;
67120;SDS011;54042;47.420;18.888;2022-07-06T08:28:51;7.55;;;3.40;;
67120;SDS011;54042;47.420;18.888;2022-07-06T08:31:18;4.78;;;3.58;;
67120;SDS011;54042;47.420;18.888;2022-07-06T08:34:05;6.05;;;3.35;;
67120;SDS011;54042;47.420;18.888;2022-07-06T08:36:33;6.90;;;4.00;;
67120;SDS011;54042;47.420;18.888;2022-07-06T08:39:04;5.95;;;3.83;;
67120;SDS011;54042;47.420;18.888;2022-07-06T08:41:33;5.15;;;3.72;;
67120;SDS011;54042;47.420;18.888;2022-07-06T08:44:03;5.95;;;3.83;;
67120;SDS011;54042;47.420;18.888;2022-07-06T08:46:31;4.47;;;3.35;;
67120;SDS011;54042;47.420;18.888;2022-07-06T08:48:58;5.68;;;3.55;;
67120;SDS011;54042;47.420;18.888;2022-07-06T08:51:27;4.53;;;3.50;;
67120;SDS011;54042;47.420;18.888;2022-07-06T08:53:56;3.78;;;3.38;;
67120;SDS011;54042;47.420;18.888;2022-07-06T08:56:25;13.98;;;3.22;;
67120;SDS011;54042;47.420;18.888;2022-07-06T08:58:54;5.05;;;3.35;;
67120;SDS011;54042;47.420;18.888;2022-07-06T09:01:21;7.97;;;4.28;;
67120;SDS011;54042;47.420;18.888;2022-07-06T09:03:49;6.80;;;3.65;;
67120;SDS011;54042;47.420;18.888;2022-07-06T09:06:29;7.50;;;3.55;;
67120;SDS011;54042;47.420;18.888;2022-07-06T09:09:03;5.10;;;3.58;;
67120;SDS011;54042;47.420;18.888;2022-07-06T09:11:32;6.00;;;3.15;;
67120;SDS011;54042;47.420;18.888;2022-07-06T09:14:00;6.65;;;3.60;;
67120;SDS011;54042;47.420;18.888;2022-07-06T09:16:29;7.13;;;3.13;;
67120;SDS011;54042;47.420;18.888;2022-07-06T09:19:06;11.45;;;3.45;;
67120;SDS011;54042;47.420;18.888;2022-07-06T09:21:34;10.98;;;3.40;;
67120;SDS011;54042;47.420;18.888;2022-07-06T09:24:06;4.97;;;3.42;;
67120;SDS011;54042;47.420;18.888;2022-07-06T09:27:16;6.28;;;3.28;;
67120;SDS011;54042;47.420;18.888;2022-07-06T09:29:48;6.78;;;3.03;;
67120;SDS011;54042;47.420;18.888;2022-07-06T09:32:15;4.93;;;3.28;;
67120;SDS011;54042;47.420;18.888;2022-07-06T09:34:47;4.32;;;3.22;;
67120;SDS011;54042;47.420;18.888;2022-07-06T09:37:16;4.85;;;3.17;;
67120;SDS011;54042;47.420;18.888;2022-07-06T09:39:52;5.35;;;2.92;;
67120;SDS011;54042;47.420;18.888;2022-07-06T09:42:24;8.13;;;3.38;;
67120;SDS011;54042;47.420;18.888;2022-07-06T09:44:55;4.68;;;3.40;;
67120;SDS011;54042;47.420;18.888;2022-07-06T09:47:24;3.33;;;2.80;;
67120;SDS011;54042;47.420;18.888;2022-07-06T09:49:53;3.35;;;2.60;;
67120;SDS011;54042;47.420;18.888;2022-07-06T09:52:22;4.80;;;3.55;;
67120;SDS011;54042;47.420;18.888;2022-07-06T09:54:52;4.75;;;3.08;;
67120;SDS011;54042;47.420;18.888;2022-07-06T09:57:20;5.13;;;2.95;;
67120;SDS011;54042;47.420;18.888;2022-07-06T09:59:50;2.92;;;2.63;;
67120;SDS011;54042;47.420;18.888;2022-07-06T10:02:17;4.55;;;3.20;;
67120;SDS011;54042;47.420;18.888;2022-07-06T10:04:46;3.33;;;2.70;;
67120;SDS011;54042;47.420;18.888;2022-07-06T10:07:14;3.75;;;2.83;;
67120;SDS011;54042;47.420;18.888;2022-07-06T10:09:41;6.10;;;2.83;;
67120;SDS011;54042;47.420;18.888;2022-07-06T10:12:09;3.80;;;3.00;;
67120;SDS011;54042;47.420;18.888;2022-07-06T10:14:38;6.88;;;2.42;;
67120;SDS011;54042;47.420;18.888;2022-07-06T10:17:06;3.63;;;2.30;;
67120;SDS011;54042;47.420;18.888;2022-07-06T10:19:38;3.85;;;2.80;;
67120;SDS011;54042;47.420;18.888;2022-07-06T10:22:14;2.88;;;2.63;;
67120;SDS011;54042;47.420;18.888;2022-07-06T10:24:49;2.60;;;2.38;;
67120;SDS011;54042;47.420;18.888;2022-07-06T10:27:38;7.03;;;2.50;;
67120;SDS011;54042;47.420;18.888;2022-07-06T10:30:29;8.80;;;2.67;;
67120;SDS011;54042;47.420;18.888;2022-07-06T10:33:13;3.00;;;2.50;;
67120;SDS011;54042;47.420;18.888;2022-07-06T10:35:52;3.00;;;2.17;;
67120;SDS011;54042;47.420;18.888;2022-07-06T10:38:34;4.85;;;2.40;;
67120;SDS011;54042;47.420;18.888;2022-07-06T10:41:07;3.80;;;2.65;;
67120;SDS011;54042;47.420;18.888;2022-07-06T10:43:47;2.38;;;2.13;;
67120;SDS011;54042;47.420;18.888;2022-07-06T10:46:35;4.40;;;2.22;;
67120;SDS011;54042;47.420;18.888;2022-07-06T10:49:16;8.75;;;2.58;;
67120;SDS011;54042;47.420;18.888;2022-07-06T10:52:03;2.60;;;2.13;;
67120;SDS011;54042;47.420;18.888;2022-07-06T10:54:32;2.50;;;1.95;;
67120;SDS011;54042;47.420;18.888;2022-07-06T10:57:09;2.80;;;2.30;;
67120;SDS011;54042;47.420;18.888;2022-07-06T11:00:00;4.13;;;2.35;;
67120;SDS011;54042;47.420;18.888;2022-07-06T11:02:29;10.90;;;2.22;;
67120;SDS011;54042;47.420;18.888;2022-07-06T11:05:09;3.97;;;2.22;;
67120;SDS011;54042;47.420;18.888;2022-07-06T11:07:48;5.13;;;2.60;;
67120;SDS011;54042;47.420;18.888;2022-07-06T11:10:19;3.92;;;2.42;;
67120;SDS011;54042;47.420;18.888;2022-07-06T11:12:49;2.80;;;2.22;;
67120;SDS011;54042;47.420;18.888;2022-07-06T11:18:14;3.38;;;2.17;;
67120;SDS011;54042;47.420;18.888;2022-07-06T11:23:42;5.40;;;1.95;;
67120;SDS011;54042;47.420;18.888;2022-07-06T11:26:09;4.15;;;2.50;;
67120;SDS011;54042;47.420;18.888;2022-07-06T11:28:39;3.38;;;1.98;;
67120;SDS011;54042;47.420;18.888;2022-07-06T11:31:11;2.63;;;2.08;;
67120;SDS011;54042;47.420;18.888;2022-07-06T11:33:39;9.27;;;2.42;;
67120;SDS011;54042;47.420;18.888;2022-07-06T11:36:18;7.90;;;2.60;;
67120;SDS011;54042;47.420;18.888;2022-07-06T11:38:54;3.90;;;2.17;;
67120;SDS011;54042;47.420;18.888;2022-07-06T11:41:21;2.55;;;2.03;;
67120;SDS011;54042;47.420;18.888;2022-07-06T11:43:48;5.03;;;2.40;;
67120;SDS011;54042;47.420;18.888;2022-07-06T11:46:28;3.90;;;2.13;;
67120;SDS011;54042;47.420;18.888;2022-07-06T11:49:01;4.10;;;1.90;;
67120;SDS011;54042;47.420;18.888;2022-07-06T11:51:39;7.38;;;2.30;;
67120;SDS011;54042;47.420;18.888;2022-07-06T11:54:34;6.30;;;2.00;;
67120;SDS011;54042;47.420;18.888;2022-07-06T11:57:24;4.30;;;1.77;;
67120;SDS011;54042;47.420;18.888;2022-07-06T12:00:01;3.15;;;1.83;;
67120;SDS011;54042;47.420;18.888;2022-07-06T12:02:28;5.22;;;1.90;;
67120;SDS011;54042;47.420;18.888;2022-07-06T12:04:55;7.97;;;2.00;;
67120;SDS011;54042;47.420;18.888;2022-07-06T12:07:45;4.03;;;1.92;;
67120;SDS011;54042;47.420;18.888;2022-07-06T12:10:32;6.65;;;2.13;;
67120;SDS011;54042;47.420;18.888;2022-07-06T12:13:04;3.30;;;2.17;;
67120;SDS011;54042;47.420;18.888;2022-07-06T12:15:36;4.78;;;2.10;;
67120;SDS011;54042;47.420;18.888;2022-07-06T12:18:09;3.10;;;1.70;;
67120;SDS011;54042;47.420;18.888;2022-07-06T12:20:37;2.40;;;1.83;;
67120;SDS011;54042;47.420;18.888;2022-07-06T12:23:04;14.35;;;2.05;;
67120;SDS011;54042;47.420;18.888;2022-07-06T12:25:32;3.58;;;2.10;;
67120;SDS011;54042;47.420;18.888;2022-07-06T12:28:00;5.55;;;2.30;;
67120;SDS011;54042;47.420;18.888;2022-07-06T12:30:28;2.50;;;2.15;;
67120;SDS011;54042;47.420;18.888;2022-07-06T12:33:12;5.25;;;2.03;;
67120;SDS011;54042;47.420;18.888;2022-07-06T12:36:08;5.65;;;2.25;;
67120;SDS011;54042;47.420;18.888;2022-07-06T12:39:23;5.22;;;2.10;;
67120;SDS011;54042;47.420;18.888;2022-07-06T12:42:04;5.45;;;2.40;;
67120;SDS011;54042;47.420;18.888;2022-07-06T12:44:47;3.65;;;1.80;;
67120;SDS011;54042;47.420;18.888;2022-07-06T12:47:21;5.70;;;1.70;;
67120;SDS011;54042;47.420;18.888;2022-07-06T12:50:04;1.80;;;1.60;;
67120;SDS011;54042;47.420;18.888;2022-07-06T12:52:34;2.10;;;1.90;;
67120;SDS011;54042;47.420;18.888;2022-07-06T12:55:06;5.10;;;1.95;;
67120;SDS011;54042;47.420;18.888;2022-07-06T12:57:47;2.97;;;1.65;;
67120;SDS011;54042;47.420;18.888;2022-07-06T13:00:16;4.90;;;1.70;;
67120;SDS011;54042;47.420;18.888;2022-07-06T13:02:44;1.98;;;1.75;;
67120;SDS011;54042;47.420;18.888;2022-07-06T13:05:32;5.55;;;1.73;;
67120;SDS011;54042;47.420;18.888;2022-07-06T13:08:01;1.77;;;1.67;;
67120;SDS011;54042;47.420;18.888;2022-07-06T13:10:29;4.18;;;1.80;;
67120;SDS011;54042;47.420;18.888;2022-07-06T13:12:57;8.25;;;2.17;;
67120;SDS011;54042;47.420;18.888;2022-07-06T13:15:25;2.33;;;1.90;;
67120;SDS011;54042;47.420;18.888;2022-07-06T13:17:52;2.35;;;1.80;;
67120;SDS011;54042;47.420;18.888;2022-07-06T13:20:19;3.38;;;1.52;;
67120;SDS011;54042;47.420;18.888;2022-07-06T13:22:46;5.45;;;1.60;;
67120;SDS011;54042;47.420;18.888;2022-07-06T13:25:13;2.78;;;1.58;;
67120;SDS011;54042;47.420;18.888;2022-07-06T13:27:40;2.03;;;1.50;;
67120;SDS011;54042;47.420;18.888;2022-07-06T13:30:06;14.35;;;2.30;;
67120;SDS011;54042;47.420;18.888;2022-07-06T13:32:34;2.83;;;1.90;;
67120;SDS011;54042;47.420;18.888;2022-07-06T13:35:01;4.53;;;1.80;;
67120;SDS011;54042;47.420;18.888;2022-07-06T13:37:28;4.63;;;1.83;;
67120;SDS011;54042;47.420;18.888;2022-07-06T13:39:55;5.25;;;1.70;;
67120;SDS011;54042;47.420;18.888;2022-07-06T13:42:22;6.60;;;1.70;;
67120;SDS011;54042;47.420;18.888;2022-07-06T13:44:49;8.27;;;1.92;;
67120;SDS011;54042;47.420;18.888;2022-07-06T13:47:16;6.00;;;2.00;;
67120;SDS011;54042;47.420;18.888;2022-07-06T13:49:43;3.58;;;1.60;;
67120;SDS011;54042;47.420;18.888;2022-07-06T13:52:16;4.15;;;1.52;;
67120;SDS011;54042;47.420;18.888;2022-07-06T13:54:45;5.03;;;2.13;;
67120;SDS011;54042;47.420;18.888;2022-07-06T13:57:14;3.45;;;2.00;;
67120;SDS011;54042;47.420;18.888;2022-07-06T13:59:55;4.32;;;1.83;;
67120;SDS011;54042;47.420;18.888;2022-07-06T14:05:40;5.07;;;1.60;;
67120;SDS011;54042;47.420;18.888;2022-07-06T14:08:14;4.28;;;1.70;;
67120;SDS011;54042;47.420;18.888;2022-07-06T14:10:48;3.80;;;2.28;;
67120;SDS011;54042;47.420;18.888;2022-07-06T14:13:17;5.25;;;1.77;;
67120;SDS011;54042;47.420;18.888;2022-07-06T14:18:53;4.90;;;1.80;;
67120;SDS011;54042;47.420;18.888;2022-07-06T14:22:10;4.63;;;1.60;;
67120;SDS011;54042;47.420;18.888;2022-07-06T14:24:39;1.88;;;1.40;;
67120;SDS011;54042;47.420;18.888;2022-07-06T14:27:08;4.88;;;1.65;;
67120;SDS011;54042;47.420;18.888;2022-07-06T14:29:37;3.60;;;1.38;;
67120;SDS011;54042;47.420;18.888;2022-07-06T14:32:04;2.38;;;1.40;;
67120;SDS011;54042;47.420;18.888;2022-07-06T14:34:31;9.50;;;1.65;;
67120;SDS011;54042;47.420;18.888;2022-07-06T14:36:58;1.55;;;1.20;;
67120;SDS011;54042;47.420;18.888;2022-07-06T14:39:26;2.22;;;1.15;;
67120;SDS011;54042;47.420;18.888;2022-07-06T14:41:53;1.52;;;1.20;;
67120;SDS011;54042;47.420;18.888;2022-07-06T14:44:20;1.35;;;1.10;;
67120;SDS011;54042;47.420;18.888;2022-07-06T14:46:47;4.38;;;1.25;;
67120;SDS011;54042;47.420;18.888;2022-07-06T14:49:13;6.25;;;1.08;;
67120;SDS011;54042;47.420;18.888;2022-07-06T14:51:46;2.20;;;1.08;;
67120;SDS011;54042;47.420;18.888;2022-07-06T14:54:18;7.57;;;1.10;;
67120;SDS011;54042;47.420;18.888;2022-07-06T14:56:45;2.80;;;1.10;;
67120;SDS011;54042;47.420;18.888;2022-07-06T14:59:12;3.25;;;1.33;;